Time;durP1;ratioP1;P1;durP2;ratioP2;P2;SDS_P1;SDS_P2;PMS_P1;PMS_P2;Temp;Humidity;BMP_temperature;BMP_pressure;BME280_temperature;BME280_humidity;BME280_pressure;Samples;Min_cycle;Max_cycle;Signal;HPM_P1;HPM_P2
2023/04/09 13:36:59;;;;;;;19.55;13.05;;;19.10;99.90;;;;;;5095142;28;20411;-94
2023/04/09 13:39:25;;;;;;;19.02;13.93;;;17.20;90.10;;;;;;5053193;28;20046;-95
2023/04/09 13:41:54;;;;;;;18.60;14.02;;;16.30;91.40;;;;;;5028972;28;20099;-95
2023/04/09 13:48:13;;;;;;;20.90;14.70;;;15.70;90.60;;;;;;5079996;23;20506;-96
2023/04/09 13:50:46;;;;;;;19.48;14.25;;;15.60;90.70;;;;;;5101068;23;20066;-94
2023/04/09 13:53:12;;;;;;;19.38;14.35;;;15.80;90.30;;;;;;5022021;28;20045;-95
2023/04/09 13:55:41;;;;;;;20.00;15.55;;;15.60;90.60;;;;;;5021945;28;20052;-94
2023/04/09 13:58:08;;;;;;;20.30;14.05;;;15.50;90.40;;;;;;5004477;28;20109;-93
2023/04/09 14:00:44;;;;;;;19.52;14.27;;;15.40;90.20;;;;;;5007808;28;20053;-93
2023/04/09 14:03:12;;;;;;;22.17;15.00;;;15.40;90.90;;;;;;5010696;28;20160;-93
2023/04/09 14:05:41;;;;;;;20.80;14.80;;;15.40;89.40;;;;;;5007380;28;20064;-95
2023/04/09 14:08:09;;;;;;;19.40;14.85;;;15.70;90.00;;;;;;5023540;28;20042;-94
2023/04/09 14:10:41;;;;;;;20.17;14.80;;;15.70;90.90;;;;;;4990328;28;20054;-94
2023/04/09 14:13:15;;;;;;;18.45;13.85;;;15.60;89.90;;;;;;5023635;28;20049;-95
2023/04/09 14:15:44;;;;;;;24.40;15.55;;;14.20;89.30;;;;;;4990851;28;20076;-92
2023/04/09 14:18:10;;;;;;;20.67;15.23;;;15.50;91.30;;;;;;4987118;28;20042;-93
2023/04/09 14:20:38;;;;;;;21.20;15.77;;;15.70;88.70;;;;;;4985622;28;20072;-91
2023/04/09 14:23:09;;;;;;;21.02;15.55;;;15.60;89.10;;;;;;5004384;28;20046;-93
2023/04/09 14:25:42;;;;;;;22.73;15.95;;;15.40;88.50;;;;;;5006088;28;20048;-93
2023/04/09 14:28:08;;;;;;;24.15;16.35;;;15.30;89.70;;;;;;5004519;28;20096;-93
2023/04/09 14:30:36;;;;;;;24.15;16.75;;;15.30;89.90;;;;;;5003058;28;20045;-93
2023/04/09 14:33:02;;;;;;;21.98;16.55;;;15.40;88.30;;;;;;4998720;28;20052;-93
2023/04/09 14:35:30;;;;;;;21.70;16.13;;;15.40;89.40;;;;;;4997273;28;20136;-93
2023/04/09 14:37:56;;;;;;;22.75;15.93;;;15.60;90.00;;;;;;4981883;28;20061;-92
2023/04/09 14:40:24;;;;;;;27.27;17.35;;;15.60;89.60;;;;;;4996851;28;20135;-94
2023/04/09 14:42:52;;;;;;;23.25;17.17;;;15.60;89.50;;;;;;4996987;28;20084;-92
2023/04/09 14:45:21;;;;;;;23.20;16.48;;;15.50;90.10;;;;;;4980619;28;20050;-94
2023/04/09 14:47:49;;;;;;;21.65;16.45;;;15.30;90.60;;;;;;4986981;28;20050;-93
2023/04/09 14:50:15;;;;;;;23.92;17.13;;;15.20;90.70;;;;;;4983355;28;20521;-94
2023/04/09 14:52:41;;;;;;;22.95;15.90;;;15.10;90.10;;;;;;4967596;28;20212;-93
2023/04/09 14:55:11;;;;;;;23.73;17.20;;;14.90;90.20;;;;;;4983660;28;20478;-92
2023/04/09 14:57:42;;;;;;;23.55;16.38;;;14.90;90.10;;;;;;4985472;28;20100;-93
2023/04/09 15:00:22;;;;;;;;;;;;;;;;;;;;;
2023/04/09 15:02:48;;;;;;;24.13;16.25;;;14.90;90.40;;;;;;4987370;28;20513;-94
2023/04/09 15:05:18;;;;;;;24.63;17.92;;;13.60;90.40;;;;;;4967307;28;20045;-93
2023/04/09 15:07:46;;;;;;;21.48;16.88;;;15.10;91.40;;;;;;4983694;28;20053;-93
2023/04/09 15:10:15;;;;;;;24.50;17.30;;;15.30;90.30;;;;;;4983462;28;20046;-94
2023/04/09 15:12:43;;;;;;;21.73;16.95;;;14.30;89.20;;;;;;4982998;28;20514;-91
2023/04/09 15:15:13;;;;;;;20.55;15.88;;;15.40;90.20;;;;;;4967239;28;20509;-92
2023/04/09 15:17:39;;;;;;;22.02;16.17;;;15.80;89.60;;;;;;4966574;28;20494;-93
2023/04/09 15:20:09;;;;;;;23.33;16.67;;;15.40;89.50;;;;;;4982822;28;20071;-94
2023/04/09 15:22:37;;;;;;;22.45;16.17;;;15.60;88.90;;;;;;4984545;28;20053;-93
2023/04/09 15:25:05;;;;;;;23.67;15.82;;;15.40;89.20;;;;;;4984625;28;20050;-94
2023/04/09 15:27:34;;;;;;;24.88;16.80;;;15.60;88.80;;;;;;4969962;28;20141;-92
2023/04/09 15:30:00;;;;;;;21.85;16.35;;;15.50;88.10;;;;;;4967338;28;20049;-93
2023/04/09 15:32:31;;;;;;;21.35;15.63;;;15.40;88.00;;;;;;4967207;28;20080;-93
2023/04/09 15:34:59;;;;;;;23.08;16.75;;;15.30;90.30;;;;;;4968165;28;20195;-94
2023/04/09 15:37:25;;;;;;;21.92;15.85;;;14.50;90.10;;;;;;4968449;28;20065;-94
2023/04/09 15:39:56;;;;;;;23.27;15.85;;;14.90;90.40;;;;;;4978214;28;20041;-91
2023/04/09 15:42:33;;;;;;;21.85;16.10;;;13.70;89.50;;;;;;4984873;28;20133;-92
2023/04/09 15:45:00;;;;;;;23.40;16.77;;;14.80;90.00;;;;;;4977123;28;20049;-94
2023/04/09 15:47:34;;;;;;;21.60;15.75;;;14.70;90.60;;;;;;4975506;28;20046;-95
2023/04/09 15:50:08;;;;;;;21.98;15.80;;;14.60;90.40;;;;;;4973343;28;20061;-94
2023/04/09 15:52:34;;;;;;;23.53;14.90;;;14.60;90.60;;;;;;4968864;28;20058;-94
2023/04/09 15:55:02;;;;;;;20.70;15.13;;;14.60;90.80;;;;;;4984222;28;20308;-94
2023/04/09 15:57:28;;;;;;;23.80;15.40;;;14.50;90.40;;;;;;4965306;28;20050;-94
2023/04/09 15:59:54;;;;;;;19.52;14.07;;;14.50;90.00;;;;;;4979062;28;20125;-93
2023/04/09 16:02:22;;;;;;;19.35;14.60;;;14.60;90.20;;;;;;4972398;28;20053;-93
2023/04/09 16:04:51;;;;;;;19.50;14.20;;;14.80;90.90;;;;;;4989476;28;20057;-94
2023/04/09 16:07:17;;;;;;;18.65;14.18;;;14.90;90.10;;;;;;4982787;28;20266;-91
2023/04/09 16:09:44;;;;;;;18.95;13.85;;;15.00;90.60;;;;;;4985108;28;20041;-91
2023/04/09 16:12:10;;;;;;;19.58;14.20;;;14.90;89.90;;;;;;5016194;28;20085;-90
2023/04/09 16:14:36;;;;;;;20.20;14.73;;;14.90;89.60;;;;;;4983690;28;20084;-91
2023/04/09 16:17:04;;;;;;;20.13;14.27;;;13.80;89.20;;;;;;4999986;28;20079;-93
2023/04/09 16:19:30;;;;;;;21.17;14.00;;;14.70;88.80;;;;;;4979995;28;20491;-92
2023/04/09 16:21:56;;;;;;;19.90;14.18;;;14.70;88.80;;;;;;4986142;28;20056;-93
2023/04/09 16:24:22;;;;;;;17.67;12.95;;;14.60;89.60;;;;;;5001738;28;20042;-94
2023/04/09 16:26:50;;;;;;;19.10;14.05;;;14.70;90.10;;;;;;4996750;28;20049;-92
2023/04/09 16:29:16;;;;;;;18.67;13.02;;;14.50;90.10;;;;;;4993482;28;20049;-91
2023/04/09 16:31:42;;;;;;;18.52;12.43;;;14.60;89.80;;;;;;5000100;28;20057;-94
2023/04/09 16:34:08;;;;;;;16.67;11.60;;;14.70;90.50;;;;;;4996005;28;20077;-91
2023/04/09 16:36:37;;;;;;;18.83;12.48;;;14.70;89.20;;;;;;4989918;28;20124;-94
2023/04/09 16:39:03;;;;;;;17.50;12.23;;;14.60;89.30;;;;;;4983997;28;20264;-91
2023/04/09 16:41:32;;;;;;;16.92;12.38;;;14.60;89.10;;;;;;5002555;28;20029;-94
2023/04/09 16:44:02;;;;;;;16.33;12.15;;;14.60;89.00;;;;;;4990938;28;20041;-92
2023/04/09 16:46:28;;;;;;;18.17;12.95;;;13.70;87.20;;;;;;5004893;28;20121;-95
2023/04/09 16:48:57;;;;;;;16.27;11.27;;;14.30;88.80;;;;;;4996532;28;20106;-92
2023/04/09 16:51:25;;;;;;;18.95;12.07;;;14.30;88.70;;;;;;4999100;28;20054;-90
2023/04/09 16:53:51;;;;;;;19.13;13.00;;;14.20;88.20;;;;;;4997883;28;20045;-92
2023/04/09 16:56:20;;;;;;;18.08;12.70;;;14.20;88.80;;;;;;5010331;28;20041;-92
2023/04/09 16:58:46;;;;;;;17.02;12.00;;;13.10;88.80;;;;;;5007664;28;20054;-92
2023/04/09 17:01:14;;;;;;;16.02;12.00;;;14.10;90.40;;;;;;5000148;28;20056;-91
2023/04/09 17:03:40;;;;;;;17.65;13.05;;;14.10;90.50;;;;;;4983371;28;20048;-91
2023/04/09 17:06:08;;;;;;;20.98;13.77;;;14.00;90.30;;;;;;4980958;28;20477;-94
2023/04/09 17:08:34;;;;;;;18.75;13.70;;;13.20;90.20;;;;;;4999661;28;20136;-93
2023/04/09 17:11:00;;;;;;;18.33;12.88;;;14.00;90.20;;;;;;4987261;28;20117;-93
2023/04/09 17:13:34;;;;;;;18.00;12.82;;;14.10;89.80;;;;;;4995299;28;20115;-93
2023/04/09 17:16:02;;;;;;;17.15;12.43;;;13.90;90.50;;;;;;4995943;28;20048;-91
2023/04/09 17:18:28;;;;;;;17.92;12.48;;;13.80;90.30;;;;;;4997272;28;20049;-91
2023/04/09 17:20:54;;;;;;;16.08;12.07;;;13.80;90.30;;;;;;5030676;28;20057;-91
2023/04/09 17:23:23;;;;;;;17.33;12.23;;;13.80;90.30;;;;;;4973946;28;20046;-91
2023/04/09 17:26:01;;;;;;;15.40;11.82;;;14.00;90.30;;;;;;4977186;28;20053;-92
2023/04/09 17:28:27;;;;;;;17.40;12.15;;;13.00;89.80;;;;;;4999106;28;20045;-92
2023/04/09 17:31:03;;;;;;;;;;;;;;;;;;;;;
2023/04/09 17:33:32;;;;;;;15.15;11.30;;;12.40;89.80;;;;;;4992682;28;20450;-91
2023/04/09 17:36:06;;;;;;;15.15;12.13;;;13.60;90.20;;;;;;5000507;28;20517;-93
2023/04/09 17:38:34;;;;;;;20.03;13.47;;;13.60;90.30;;;;;;4996855;28;20044;-93
2023/04/09 17:41:00;;;;;;;19.55;11.63;;;13.40;90.60;;;;;;5014482;28;20308;-93
2023/04/09 17:43:26;;;;;;;16.55;12.27;;;13.40;90.50;;;;;;4995041;28;20042;-94
2023/04/09 17:45:54;;;;;;;17.17;12.05;;;13.40;90.80;;;;;;4997492;28;20064;-94
2023/04/09 17:48:20;;;;;;;18.13;13.50;;;13.30;90.80;;;;;;4996818;28;20389;-94
2023/04/09 17:50:46;;;;;;;16.50;12.50;;;13.10;91.10;;;;;;4996069;28;20636;-94
2023/04/09 17:53:15;;;;;;;17.17;12.13;;;13.10;91.00;;;;;;5002507;28;20049;-90
2023/04/09 17:55:49;;;;;;;16.17;11.90;;;13.10;91.20;;;;;;4998272;28;20102;-92
2023/04/09 17:58:15;;;;;;;65.50;38.45;;;12.80;90.90;;;;;;5131751;23;20049;-93
2023/04/09 18:00:47;;;;;;;115.68;58.67;;;13.00;91.10;;;;;;4999513;28;20073;-93
2023/04/09 18:03:13;;;;;;;191.63;92.40;;;12.80;91.30;;;;;;4994047;28;20049;-92
2023/04/09 18:05:38;;;;;;;209.88;99.53;;;12.80;91.50;;;;;;4985407;28;20041;-93
2023/04/09 18:08:04;;;;;;;198.55;95.78;;;12.70;91.60;;;;;;4989408;28;20149;-93
2023/04/09 18:10:30;;;;;;;208.95;88.47;;;12.60;91.70;;;;;;4983981;28;20569;-95
2023/04/09 18:12:56;;;;;;;225.18;93.97;;;12.50;91.80;;;;;;4999444;28;20037;-90
2023/04/09 18:15:22;;;;;;;184.02;76.38;;;12.50;91.90;;;;;;4982608;28;20052;-92
2023/04/09 18:17:48;;;;;;;144.32;59.45;;;12.50;91.90;;;;;;4979126;28;20061;-92
2023/04/09 18:20:16;;;;;;;69.57;33.17;;;12.40;91.90;;;;;;4977412;28;20041;-90
2023/04/09 18:22:45;;;;;;;54.08;26.83;;;12.40;91.90;;;;;;4985827;28;20050;-93
2023/04/09 18:25:13;;;;;;;68.80;32.78;;;12.30;92.20;;;;;;4988757;28;20068;-93
2023/04/09 18:27:40;;;;;;;31.80;19.70;;;12.10;92.50;;;;;;4988123;28;20057;-90
2023/04/09 18:30:06;;;;;;;35.90;21.58;;;12.10;92.20;;;;;;4987065;28;20045;-86
2023/04/09 18:32:32;;;;;;;32.33;20.17;;;12.10;92.30;;;;;;4999648;28;20061;-89
2023/04/09 18:34:58;;;;;;;31.73;21.48;;;12.10;92.40;;;;;;5000140;28;20046;-89
2023/04/09 18:37:26;;;;;;;33.17;21.63;;;12.00;92.50;;;;;;4984055;28;20053;-89
2023/04/09 18:39:52;;;;;;;30.38;20.13;;;12.00;92.60;;;;;;4985413;28;20491;-88
2023/04/09 18:42:18;;;;;;;26.75;18.63;;;12.00;92.60;;;;;;4986784;28;20052;-90
2023/04/09 18:44:44;;;;;;;21.98;16.00;;;11.90;92.70;;;;;;4976850;28;20064;-90
2023/04/09 18:47:10;;;;;;;19.13;14.10;;;11.70;92.70;;;;;;4983117;28;20048;-89
2023/04/09 18:49:36;;;;;;;20.77;14.45;;;11.70;92.80;;;;;;4991353;28;20052;-90
2023/04/09 18:52:04;;;;;;;18.55;14.02;;;11.50;93.00;;;;;;5002537;28;20049;-93
2023/04/09 18:54:33;;;;;;;19.95;13.55;;;11.50;93.00;;;;;;4970445;28;20053;-91
2023/04/09 18:57:02;;;;;;;21.42;14.45;;;11.40;93.20;;;;;;5002279;28;20049;-91
2023/04/09 18:59:32;;;;;;;18.13;14.02;;;11.40;93.40;;;;;;4982920;28;20058;-91
2023/04/09 19:01:58;;;;;;;20.45;13.85;;;11.30;93.20;;;;;;5001799;28;20042;-90
2023/04/09 19:04:26;;;;;;;18.90;12.73;;;11.20;93.50;;;;;;4979685;28;20052;-90
2023/04/09 19:06:53;;;;;;;19.90;13.57;;;11.20;93.80;;;;;;4981157;28;20073;-90
2023/04/09 19:09:20;;;;;;;20.10;14.27;;;11.10;94.10;;;;;;4984616;28;20471;-91
2023/04/09 19:11:49;;;;;;;17.77;13.70;;;10.90;94.00;;;;;;4986487;28;20045;-92
2023/04/09 19:14:17;;;;;;;21.10;15.48;;;11.10;94.20;;;;;;4983838;28;20088;-92
2023/04/09 19:16:45;;;;;;;22.92;16.23;;;10.70;94.20;;;;;;4998703;28;20104;-92
2023/04/09 19:19:18;;;;;;;25.45;17.38;;;10.90;94.30;;;;;;4986945;28;20470;-92
2023/04/09 19:21:44;;;;;;;22.88;15.82;;;11.00;94.30;;;;;;5005051;28;20041;-91
2023/04/09 19:24:12;;;;;;;25.80;16.70;;;11.00;94.30;;;;;;4990169;28;20056;-91
2023/04/09 19:26:38;;;;;;;27.25;17.88;;;11.00;94.40;;;;;;5002237;28;20073;-92
2023/04/09 19:29:04;;;;;;;24.27;17.33;;;10.90;94.40;;;;;;5011414;28;20050;-92
2023/04/09 19:31:31;;;;;;;23.45;17.13;;;10.90;94.60;;;;;;5003525;28;20442;-91
2023/04/09 19:33:56;;;;;;;27.42;18.58;;;10.80;94.80;;;;;;5015524;28;20081;-91
2023/04/09 19:36:22;;;;;;;27.77;18.48;;;10.80;94.50;;;;;;4999749;28;20053;-91
2023/04/09 19:38:49;;;;;;;27.73;18.98;;;10.70;94.40;;;;;;4999532;28;20428;-90
2023/04/09 19:41:15;;;;;;;28.05;19.95;;;10.70;94.50;;;;;;5002458;28;20112;-92
2023/04/09 19:43:41;;;;;;;26.63;19.30;;;10.50;94.60;;;;;;4988826;28;20159;-91
2023/04/09 19:46:10;;;;;;;30.25;20.52;;;10.50;94.80;;;;;;4984586;28;20048;-90
2023/04/09 19:48:39;;;;;;;30.65;21.98;;;10.50;94.50;;;;;;4984180;28;20041;-87
2023/04/09 19:51:08;;;;;;;31.92;22.25;;;10.40;95.10;;;;;;4980797;28;20085;-92
2023/04/09 19:53:38;;;;;;;32.90;22.70;;;10.50;95.00;;;;;;4999154;28;20132;-91
2023/04/09 19:56:03;;;;;;;33.70;23.98;;;10.40;94.80;;;;;;4996917;28;20083;-91
2023/04/09 19:58:31;;;;;;;38.25;25.52;;;10.40;95.10;;;;;;4976215;28;20133;-93
2023/04/09 20:00:57;;;;;;;38.15;25.48;;;10.40;95.20;;;;;;4987826;28;20053;-91
2023/04/09 20:03:23;;;;;;;40.58;26.88;;;10.40;95.30;;;;;;4983799;28;20085;-91
2023/04/09 20:05:48;;;;;;;40.15;26.30;;;10.30;95.30;;;;;;4967608;28;20107;-93
2023/04/09 20:08:14;;;;;;;40.03;26.08;;;10.40;95.40;;;;;;4984313;28;20541;-92
2023/04/09 20:10:41;;;;;;;38.90;25.83;;;10.20;95.50;;;;;;4981318;28;20099;-91
2023/04/09 20:13:07;;;;;;;38.28;26.30;;;10.30;95.70;;;;;;4985312;28;20049;-91
2023/04/09 20:15:33;;;;;;;37.35;24.55;;;10.30;95.70;;;;;;4984770;28;20053;-91
2023/04/09 20:17:59;;;;;;;34.88;25.17;;;10.20;95.70;;;;;;4984264;28;20132;-91
2023/04/09 20:20:30;;;;;;;33.75;23.42;;;10.20;95.70;;;;;;4965030;28;20091;-92
2023/04/09 20:22:56;;;;;;;39.10;25.42;;;10.10;95.90;;;;;;4984065;28;20060;-90
2023/04/09 20:25:22;;;;;;;36.90;25.58;;;10.10;95.80;;;;;;4999712;28;20509;-91
2023/04/09 20:27:48;;;;;;;43.45;28.15;;;10.10;95.80;;;;;;4969995;28;20084;-90
2023/04/09 20:30:14;;;;;;;41.58;26.80;;;10.00;95.90;;;;;;4998898;28;20605;-90
2023/04/09 20:32:40;;;;;;;39.25;24.83;;;10.00;96.00;;;;;;4982601;28;20482;-90
2023/04/09 20:35:07;;;;;;;43.70;28.15;;;9.90;96.00;;;;;;4998618;28;20044;-90
2023/04/09 20:37:33;;;;;;;53.13;32.22;;;8.50;95.70;;;;;;4997876;28;20049;-90
2023/04/09 20:39:59;;;;;;;62.65;36.90;;;9.90;95.70;;;;;;4978861;28;20137;-91
2023/04/09 20:42:25;;;;;;;76.35;42.83;;;9.90;95.90;;;;;;4997094;28;20191;-89
2023/04/09 20:44:50;;;;;;;73.00;40.35;;;9.80;95.90;;;;;;4996301;28;20414;-89
2023/04/09 20:47:16;;;;;;;64.10;34.92;;;9.80;96.10;;;;;;4996642;28;20049;-90
2023/04/09 20:49:42;;;;;;;58.00;33.88;;;9.80;96.00;;;;;;4981921;28;20056;-92
2023/04/09 20:52:08;;;;;;;57.35;34.25;;;9.80;96.20;;;;;;5015545;28;20049;-88
2023/04/09 20:54:33;;;;;;;54.90;33.90;;;9.80;96.20;;;;;;4993966;28;20049;-90
2023/04/09 20:57:00;;;;;;;51.17;32.65;;;9.70;96.40;;;;;;4997380;28;20046;-90
2023/04/09 20:59:26;;;;;;;54.33;33.95;;;9.60;96.30;;;;;;5015756;28;20138;-88
2023/04/09 21:01:54;;;;;;;55.83;31.75;;;9.60;96.40;;;;;;4997071;28;20486;-89
2023/04/09 21:04:20;;;;;;;55.20;32.53;;;9.60;96.50;;;;;;5016111;28;20059;-88
2023/04/09 21:06:46;;;;;;;52.63;31.80;;;9.60;96.50;;;;;;4998791;28;20457;-91
2023/04/09 21:09:12;;;;;;;45.50;30.73;;;9.60;96.70;;;;;;4999164;28;20045;-91
2023/04/09 21:11:38;;;;;;;45.15;28.65;;;9.50;96.70;;;;;;4982917;28;20405;-90
2023/04/09 21:14:05;;;;;;;46.97;28.25;;;9.50;97.20;;;;;;4989158;28;20608;-90
2023/04/09 21:16:32;;;;;;;41.20;28.15;;;9.50;97.20;;;;;;5015231;28;20050;-87
2023/04/09 21:18:59;;;;;;;40.20;26.02;;;9.40;97.20;;;;;;4983202;28;20120;-91
2023/04/09 21:21:27;;;;;;;40.38;26.40;;;9.40;97.30;;;;;;5015323;28;20366;-89
2023/04/09 21:23:53;;;;;;;38.90;26.95;;;9.30;97.70;;;;;;5016045;28;20056;-88
2023/04/09 21:26:18;;;;;;;44.10;27.67;;;9.30;97.70;;;;;;4997769;28;20046;-89
2023/04/09 21:28:46;;;;;;;38.38;24.98;;;9.20;97.90;;;;;;4998703;28;20041;-88
2023/04/09 21:31:11;;;;;;;42.60;26.13;;;9.20;98.10;;;;;;5016078;28;20569;-90
2023/04/09 21:33:38;;;;;;;38.55;25.05;;;9.10;98.30;;;;;;4997978;28;20128;-90
2023/04/09 21:36:05;;;;;;;37.50;24.52;;;9.10;98.30;;;;;;4982291;28;20409;-90
2023/04/09 21:38:31;;;;;;;38.38;23.88;;;9.10;98.50;;;;;;4998763;28;20444;-90
2023/04/09 21:40:57;;;;;;;44.25;26.95;;;9.00;98.50;;;;;;4998424;28;20053;-88
2023/04/09 21:43:22;;;;;;;45.08;28.92;;;9.00;98.80;;;;;;4999206;28;20426;-88
2023/04/09 21:45:48;;;;;;;51.83;29.63;;;8.90;98.80;;;;;;5016074;28;20076;-87
2023/04/09 21:48:14;;;;;;;54.58;31.88;;;8.90;98.70;;;;;;5015635;28;20397;-88
2023/04/09 21:50:40;;;;;;;56.67;33.22;;;8.80;98.90;;;;;;4981813;28;20092;-86
2023/04/09 21:53:06;;;;;;;58.03;33.70;;;8.80;98.70;;;;;;5014134;28;20050;-87
2023/04/09 21:55:35;;;;;;;70.30;38.92;;;8.70;99.10;;;;;;5013414;28;20052;-89
2023/04/09 21:58:01;;;;;;;77.80;42.90;;;8.70;99.10;;;;;;5001024;28;20100;-87
2023/04/09 22:00:28;;;;;;;79.40;44.38;;;8.70;99.40;;;;;;5004140;28;20062;-87
2023/04/09 22:02:59;;;;;;;74.05;40.72;;;8.70;99.40;;;;;;5001804;28;20057;-88
2023/04/09 22:05:26;;;;;;;72.45;40.33;;;8.60;99.50;;;;;;5002364;28;20049;-88
2023/04/09 22:07:52;;;;;;;75.82;40.10;;;8.60;99.60;;;;;;4984644;28;20053;-90
2023/04/09 22:10:18;;;;;;;74.40;39.65;;;8.50;99.50;;;;;;5001333;28;20101;-85
2023/04/09 22:12:44;;;;;;;77.35;41.83;;;8.50;99.80;;;;;;5018251;28;20124;-88
2023/04/09 22:15:10;;;;;;;74.22;41.45;;;8.50;99.90;;;;;;5001135;28;20146;-87
2023/04/09 22:17:37;;;;;;;73.25;40.08;;;8.40;99.90;;;;;;4981326;28;20045;-88
2023/04/09 22:20:06;;;;;;;74.43;39.15;;;8.40;99.90;;;;;;4984631;28;20064;-88
2023/04/09 22:22:32;;;;;;;62.75;36.97;;;8.30;99.90;;;;;;5000026;28;20103;-88
2023/04/09 22:24:58;;;;;;;61.42;35.90;;;8.30;99.90;;;;;;4999696;28;20042;-89
2023/04/09 22:27:23;;;;;;;58.00;33.70;;;8.30;99.90;;;;;;4999589;28;20702;-92
2023/04/09 22:29:49;;;;;;;59.53;34.28;;;8.20;99.90;;;;;;4984684;28;20061;-91
2023/04/09 22:32:15;;;;;;;51.90;32.33;;;8.20;99.90;;;;;;4981290;28;20120;-89
2023/04/09 22:34:41;;;;;;;53.17;32.33;;;8.20;99.90;;;;;;5000812;28;20077;-89
2023/04/09 22:37:06;;;;;;;51.03;32.45;;;8.20;99.90;;;;;;4986018;28;20057;-89
2023/04/09 22:39:32;;;;;;;53.63;33.55;;;8.20;99.90;;;;;;5002392;28;20080;-90
2023/04/09 22:41:58;;;;;;;50.28;31.05;;;8.20;99.90;;;;;;4986237;28;20107;-88
2023/04/09 22:44:24;;;;;;;63.17;35.55;;;8.20;99.90;;;;;;5019060;28;20132;-88
2023/04/09 22:46:50;;;;;;;68.15;38.92;;;8.10;99.90;;;;;;5002040;28;20041;-87
2023/04/09 22:49:16;;;;;;;72.13;39.33;;;8.20;99.90;;;;;;5018948;28;20049;-89
2023/04/09 22:51:42;;;;;;;79.85;42.45;;;8.20;99.90;;;;;;5001280;28;20081;-88
2023/04/09 22:54:08;;;;;;;93.75;47.03;;;8.10;99.90;;;;;;5001670;28;20084;-87
2023/04/09 22:56:33;;;;;;;94.35;47.08;;;8.50;99.90;;;;;;4984622;28;20061;-87
2023/04/09 22:58:59;;;;;;;97.30;50.65;;;8.10;99.90;;;;;;5017599;28;20061;-87
2023/04/09 23:01:25;;;;;;;101.65;48.78;;;8.10;99.90;;;;;;5017804;28;20052;-87
2023/04/09 23:03:51;;;;;;;90.57;46.47;;;8.10;99.90;;;;;;4984918;28;20056;-88
2023/04/09 23:06:16;;;;;;;83.72;44.78;;;8.10;99.90;;;;;;4985038;28;20049;-89
2023/04/09 23:08:42;;;;;;;84.88;43.17;;;8.10;99.90;;;;;;5017309;28;20080;-89
2023/04/09 23:11:09;;;;;;;77.78;41.97;;;8.00;99.90;;;;;;5001127;28;20772;-90
2023/04/09 23:13:38;;;;;;;73.82;40.05;;;8.00;99.90;;;;;;5001172;28;20103;-89
2023/04/09 23:16:05;;;;;;;70.20;41.25;;;8.00;99.90;;;;;;5000343;28;20042;-90
2023/04/09 23:18:30;;;;;;;70.72;39.63;;;7.90;99.90;;;;;;5000899;28;20136;-88
2023/04/09 23:20:56;;;;;;;69.55;40.20;;;7.90;99.90;;;;;;5017171;28;20124;-88
2023/04/09 23:23:22;;;;;;;70.05;42.10;;;7.90;99.90;;;;;;5001376;28;20057;-88
2023/04/09 23:25:47;;;;;;;73.40;43.97;;;7.90;99.90;;;;;;4984987;28;20050;-87
2023/04/09 23:28:13;;;;;;;71.03;45.60;;;7.80;99.90;;;;;;5000828;28;20101;-88
2023/04/09 23:30:39;;;;;;;79.68;48.58;;;7.80;99.90;;;;;;5000906;28;20483;-88
2023/04/09 23:33:05;;;;;;;79.55;50.05;;;7.70;99.90;;;;;;5019342;28;20041;-89
2023/04/09 23:35:30;;;;;;;89.88;54.78;;;7.70;99.90;;;;;;5000892;28;20108;-89
2023/04/09 23:37:56;;;;;;;89.07;55.45;;;7.70;99.90;;;;;;5001232;28;20065;-86
2023/04/09 23:40:22;;;;;;;90.53;56.95;;;7.60;99.90;;;;;;5001002;28;20628;-88
2023/04/09 23:42:49;;;;;;;77.35;50.15;;;7.60;99.90;;;;;;5000731;28;20397;-87
2023/04/09 23:45:15;;;;;;;73.38;46.90;;;7.60;99.90;;;;;;5000420;28;20572;-91
2023/04/09 23:47:41;;;;;;;70.07;44.38;;;7.70;99.90;;;;;;5000451;28;20044;-87
2023/04/09 23:50:07;;;;;;;62.40;40.10;;;7.60;99.90;;;;;;5000327;28;20393;-89
2023/04/09 23:52:34;;;;;;;59.72;39.05;;;7.70;99.90;;;;;;5000688;28;20433;-88
2023/04/09 23:54:59;;;;;;;58.33;36.95;;;7.80;99.90;;;;;;4984701;28;20362;-87
2023/04/09 23:57:26;;;;;;;57.95;36.45;;;7.60;99.90;;;;;;5000466;28;20057;-88
2023/04/09 23:59:52;;;;;;;56.45;36.60;;;7.60;99.90;;;;;;4997085;28;20050;-88
